Weather at Friedrichshafen Airport

Public forecast

Using degrees Celsius for public forecast. Weather courtesy of forecast.io.

Current aviation weather report (METAR) for Friedrichshafen Airport

2024/05/26 15:20 (retrieved 19 minutes ago)

EDNY 261520Z 28004KT 220V350 CAVOK 23/10 Q1018

Closest aviation forecast (TAF) to Friedrichshafen Airport

Closest forecast is Dübendorf Air Base, 38.6 nm (71.5 km) WSW.

2024/05/26 10:00 (retrieved 6 hours ago)

TAF LSMD 260925Z 2610/2716 VRB02KT CAVOK BECMG 2611/2613 9999 FEW050 PROB40 TEMPO 2613/2617 29010KT FEW050TCU PROB30 TEMPO 2620/2624 SHRA FEW050TCU PROB40 TEMPO 2705/2716 SHRA FEW040TCU PROB30 TEMPO 2711/2716 26015G30KT 4500 TSRA SCT040CB